SBSNSBPJ

Guest
Details From SBSN - SANTAREM
To SBPJ - Tocantins
Flight Number -
Tags generated
Created
Modified
Stats Distance 667 nm / 1,236 km
Max Altitude 0 ft / 0 m
Waypoints 6
Social Downloads 2
Likes 0
Share VATSIM

Download

Looking for another format? Having issues loading an existing format? Contact us
Advertisement - Login to hide

Notes

None

Route

SBSN RESIN UZ13 TEREB SBPJ

ID Type Via Altitude Latitude Longitude Leg Dist Tot Dist Heading (true) Name
O SBSN APT - 0 ft / 0 m -2.42243˚ -54.79279˚ - 0 nm - SANTAREM
RESIN FIX - 0 ft / 0 m -2.22975˚ -53.60925˚ 71 nm 71 nm 81° / 81° -
ANGUK FIX UZ13 (AWY-HI) 0 ft / 0 m -4.55389˚ -52.37528˚ 157 nm 229 nm 152° / 152° -
UGUTO FIX UZ13 (AWY-HI) 0 ft / 0 m -8.03633˚ -50.53017˚ 236 nm 466 nm 152° / 152° -
TEREB FIX UZ13 (AWY-HI) 0 ft / 0 m -9.95050˚ -49.50383˚ 130 nm 596 nm 152° / 152° -
O SBPJ APT - 0 ft / 0 m -10.29152˚ -48.35697˚ 70 nm 667 nm 107° / 107° Tocantins

Altitude Profile

Advertisement - Login to hide

Weather


0- 5 10 15 20 25 30 35+ Temperature / ° C

Clouds and Precipitation
Forecast for 2017-12-13 12:00 UTC. Updated 2 hours ago

Ground ~20,000 ft ~40,000 ft Winds

SBSN

Details ICAO SBSN (STM)
Name SANTAREM
Region Brazil
Timezone America/Santarem (UTC-3.0)
Stats Elevation 198 ft / 60 m (AMSL)
Location -2.422430° -54.792788°
Runways 1
Magnetic Variation 18.344° W

METAR

SBSN 131100Z 17004KT 4000 -TSRA BR SCT010 FEW023CB BKN100 25/24 Q1011

Decode

TAF

TAF SBSN 130400Z 1306/1406 09005KT 9999 FEW015 TN23/1306Z TX32/1317Z BECMG 1313/1315 08012KT FEW025 FEW030TCU BECMG 1321/1323 10010KT CAVOK RMK PCQ

Decode

Departure Runways

ID Width Length Bearing (true) Bearing (mag) Surface Threshold Offset Overrun Length
10 148 ft / 45 m 7,873 ft / 2,400 m 80.69° 99.03° Asphalt 0 ft / 0 m 245 ft / 75 m
28 148 ft / 45 m 7,873 ft / 2,400 m 260.69° 279.03° Asphalt 0 ft / 0 m 202 ft / 62 m

SBPJ

Details ICAO SBPJ (PMW)
Name Tocantins
Region Brazil
Timezone America/Araguaina (UTC-3.0)
Stats Elevation 774 ft / 236 m (AMSL)
Location -10.291524° -48.356972°
Runways 1
Magnetic Variation 21.252° W

METAR

Not found

TAF

TAF SBPJ 130200Z 1306/1318 09002KT 9999 FEW012 TN23/1306Z TX31/1317Z PROB30 1306/1308 TS FEW030CB PROB30 1311/1315 32002KT 5000 RA BKN012 FEW025TCU RMK PDC

Decode

Destination Runways

ID Width Length Bearing (true) Bearing (mag) Surface Threshold Offset Overrun Length
14 148 ft / 45 m 8,194 ft / 2,497 m 124.06° 145.31° Asphalt 0 ft / 0 m 0 ft / 0 m
32 148 ft / 45 m 8,194 ft / 2,497 m 304.06° 325.31° Asphalt 0 ft / 0 m 0 ft / 0 m

Popular Alternatives